Hahnville, Louisiana
Current Conditions -  °F | °C
As of 6:53 AM on Saturday 25 Oct 2014 (Local Time) from KMSY Reporting Station
Clear Clear  
Wind Chill: 59°   Ceiling: Unl
Heat Index: 59°   Visibility: 10mi
Dew Point: 50°   Wind: 5mph
Humidity: 72%   Direction: 30°NNE
Pressure: 30.13"   Gusts: NA
Location:  29.98°N, 90.41°W
Report Text: KMSY 251153Z 03004KT 10SM CLR 15/10 A3013 RMK AO2 SLP204 T01500100 10178 20150 52012
Loading
Personal Weather Stations






























Interactive Weather Map
Tropical Storm Tracking
New forecast layout! Learn more

10-Day Weather Forecast

Advertisements
Track Severe Weather on mobile